createdAt,value
2022-11-20T00:04:39.022Z,80.70
2022-11-20T00:09:41.423Z,50.93
2022-11-20T00:14:43.785Z,39.27
2022-11-20T00:19:46.156Z,35.27
2022-11-20T00:24:48.527Z,32.67
2022-11-20T00:29:50.895Z,33.40
2022-11-20T00:34:53.214Z,44.90
2022-11-20T00:39:55.567Z,31.33
2022-11-20T00:44:57.920Z,25.87
2022-11-20T00:50:00.931Z,28.00
2022-11-20T00:55:03.371Z,36.30
2022-11-20T01:00:06.482Z,31.07
2022-11-20T01:05:08.971Z,31.03
2022-11-20T01:10:11.330Z,42.17
2022-11-20T01:15:13.666Z,31.53
2022-11-20T01:20:16.027Z,38.73
2022-11-20T01:25:18.358Z,39.43
2022-11-20T01:30:20.714Z,39.07
2022-11-20T01:35:23.042Z,32.70
2022-11-20T01:40:25.382Z,40.60
2022-11-20T01:45:46.611Z,29.17
2022-11-20T01:50:49.683Z,30.07
2022-11-20T01:55:56.071Z,24.93
2022-11-20T02:00:58.576Z,29.30
2022-11-20T02:06:14.357Z,25.37
2022-11-20T02:11:16.694Z,27.50
2022-11-20T02:16:29.610Z,29.37
2022-11-20T02:21:48.919Z,26.90
2022-11-20T02:27:01.194Z,22.90
2022-11-20T02:32:04.230Z,30.97
2022-11-20T02:37:06.693Z,27.67
2022-11-20T02:42:09.039Z,35.13
2022-11-20T02:47:11.399Z,25.23
2022-11-20T02:52:13.731Z,35.80
2022-11-20T02:57:16.129Z,23.87
2022-11-20T03:02:21.601Z,28.47
2022-11-20T03:07:24.063Z,35.07
2022-11-20T03:12:26.419Z,25.10
2022-11-20T03:17:30.416Z,33.03
2022-11-20T03:22:32.855Z,29.33
2022-11-20T03:27:36.060Z,25.47
2022-11-20T03:32:38.433Z,23.80
2022-11-20T03:37:40.868Z,36.07
2022-11-20T03:42:46.072Z,27.00
2022-11-20T03:47:48.476Z,25.40
2022-11-20T03:52:50.885Z,25.87
2022-11-20T03:57:53.208Z,28.17
2022-11-20T04:02:59.691Z,32.63
2022-11-20T04:08:02.562Z,34.13
2022-11-20T04:13:07.519Z,27.27
2022-11-20T04:18:09.803Z,24.23
2022-11-20T04:23:12.214Z,30.10
2022-11-20T04:28:14.518Z,39.67
2022-11-20T04:33:16.892Z,39.13
2022-11-20T04:38:19.196Z,40.33
2022-11-20T04:43:21.534Z,106.60
2022-11-20T04:48:24.326Z,82.83
2022-11-20T04:53:27.573Z,52.50
2022-11-20T04:58:30.136Z,38.93
2022-11-20T05:03:32.674Z,72.43
2022-11-20T05:08:35.397Z,51.50
2022-11-20T05:13:37.737Z,63.10
2022-11-20T05:18:41.409Z,54.80
2022-11-20T05:23:44.776Z,50.07
2022-11-20T05:28:48.016Z,50.17
2022-11-20T05:33:50.622Z,48.03
2022-11-20T05:38:56.623Z,37.33
2022-11-20T05:44:00.654Z,42.80
2022-11-20T05:49:03.257Z,52.37
2022-11-20T05:54:05.658Z,45.10
2022-11-20T05:59:08.086Z,44.67
2022-11-20T06:04:10.390Z,56.80
2022-11-20T06:09:12.807Z,55.23
2022-11-20T06:14:15.141Z,59.83
2022-11-20T06:19:17.652Z,58.07
2022-11-20T06:24:20.086Z,61.17
2022-11-20T06:29:22.635Z,42.13
2022-11-20T06:34:25.143Z,44.00
2022-11-20T06:39:27.478Z,39.37
2022-11-20T06:44:29.819Z,53.10
2022-11-20T06:49:32.190Z,52.63
2022-11-20T06:54:34.519Z,48.27
2022-11-20T06:59:36.847Z,117.77
2022-11-20T07:04:40.152Z,60.63
2022-11-20T07:09:42.463Z,54.23
2022-11-20T07:14:44.806Z,105.70
2022-11-20T07:19:47.203Z,63.47
2022-11-20T07:24:49.867Z,164.13
2022-11-20T07:29:52.180Z,208.03
2022-11-20T07:34:54.502Z,118.97
2022-11-20T07:39:56.830Z,76.43
2022-11-20T07:44:59.575Z,58.63
2022-11-20T07:50:01.922Z,70.27
2022-11-20T07:55:04.516Z,50.77
2022-11-20T08:00:10.203Z,52.87
2022-11-20T08:05:15.343Z,55.97
2022-11-20T08:10:18.280Z,68.67
2022-11-20T08:15:21.389Z,69.33
2022-11-20T08:20:23.699Z,54.70
2022-11-20T08:25:26.207Z,70.57
2022-11-20T08:30:29.460Z,101.40
2022-11-20T08:35:36.922Z,91.33
2022-11-20T08:40:46.709Z,66.33
2022-11-20T08:45:48.994Z,66.33
2022-11-20T08:50:51.295Z,75.97
2022-11-20T08:55:53.592Z,60.27
2022-11-20T09:00:55.928Z,68.20
2022-11-20T09:06:00.442Z,60.97
2022-11-20T09:11:04.494Z,61.90
2022-11-20T09:16:09.179Z,68.90
2022-11-20T09:21:15.389Z,51.57
2022-11-20T09:26:17.750Z,54.90
2022-11-20T09:31:25.286Z,66.70
2022-11-20T09:36:27.638Z,48.83
2022-11-20T09:41:48.898Z,39.23
2022-11-20T09:47:03.952Z,50.17
2022-11-20T09:52:23.483Z,55.47
2022-11-20T09:57:38.923Z,167.67
2022-11-20T10:02:47.735Z,96.30
2022-11-20T10:07:56.979Z,68.70
2022-11-20T10:13:26.677Z,45.20
2022-11-20T10:18:54.738Z,80.00
2022-11-20T10:24:16.437Z,51.43
2022-11-20T10:29:23.197Z,58.03
2022-11-20T10:34:32.568Z,76.30
2022-11-20T10:40:03.080Z,67.00
2022-11-20T10:45:25.704Z,58.07
2022-11-20T10:50:29.312Z,204.33
2022-11-20T10:55:44.503Z,162.73
2022-11-20T11:00:46.901Z,53.10
2022-11-20T11:05:49.241Z,70.23
2022-11-20T11:10:55.972Z,109.60
2022-11-20T11:15:59.297Z,67.20
2022-11-20T11:21:06.407Z,46.03
2022-11-20T11:26:24.703Z,67.20
2022-11-20T11:31:32.796Z,73.03
2022-11-20T11:36:36.843Z,66.67
2022-11-20T11:41:39.335Z,67.03
2022-11-20T11:46:54.631Z,70.73
2022-11-20T11:52:03.509Z,55.40
2022-11-20T11:57:15.361Z,87.67
2022-11-20T12:02:35.729Z,82.97
2022-11-20T12:07:47.059Z,73.97
2022-11-20T12:12:59.664Z,67.27
2022-11-20T12:18:03.897Z,61.00
2022-11-20T12:23:21.022Z,58.00
2022-11-20T12:28:53.407Z,64.30
2022-11-20T12:34:22.003Z,84.53
2022-11-20T12:39:36.694Z,77.63
2022-11-20T12:45:03.674Z,94.87
2022-11-20T12:50:29.288Z,78.13
2022-11-20T12:55:43.585Z,83.67
2022-11-20T13:01:39.644Z,91.43
2022-11-20T13:06:42.700Z,103.80
2022-11-20T13:11:58.201Z,119.13
2022-11-20T13:17:15.868Z,74.93
2022-11-20T13:22:26.665Z,71.33
2022-11-20T13:27:31.994Z,83.37
2022-11-20T13:32:34.639Z,79.67
2022-11-20T13:37:38.888Z,88.57
2022-11-20T13:42:46.360Z,220.43
2022-11-20T13:47:50.974Z,215.13
2022-11-20T13:52:53.250Z,193.87
2022-11-20T13:58:14.402Z,199.73
2022-11-20T14:03:37.855Z,130.57
2022-11-20T14:08:48.357Z,138.30
2022-11-20T14:14:04.617Z,130.30
2022-11-20T14:19:22.007Z,147.90
2022-11-20T14:24:26.052Z,123.63
2022-11-20T14:29:34.263Z,116.43
2022-11-20T14:34:42.763Z,92.33
2022-11-20T14:39:57.377Z,112.10
2022-11-20T14:45:00.894Z,115.60
2022-11-20T14:50:09.700Z,118.70
2022-11-20T14:55:25.585Z,117.00
2022-11-20T15:00:28.775Z,120.43
2022-11-20T15:05:49.030Z,121.67
2022-11-20T15:10:53.091Z,126.70
2022-11-20T15:15:57.552Z,119.13
2022-11-20T15:21:04.207Z,145.20
2022-11-20T15:26:07.852Z,148.77
2022-11-20T15:31:13.168Z,139.73
2022-11-20T15:36:15.963Z,159.70
2022-11-20T15:41:19.101Z,202.33
2022-11-20T15:46:31.452Z,154.37
2022-11-20T15:51:39.027Z,165.37
2022-11-20T15:56:41.624Z,174.63
2022-11-20T16:01:44.369Z,186.17
2022-11-20T16:06:46.901Z,178.97
2022-11-20T16:11:49.211Z,152.57
2022-11-20T16:16:55.037Z,155.03
2022-11-20T16:22:03.240Z,134.30
2022-11-20T16:27:05.765Z,155.23
2022-11-20T16:32:08.113Z,167.00
2022-11-20T16:37:10.460Z,157.33
2022-11-20T16:42:12.753Z,117.90
2022-11-20T16:47:15.075Z,134.03
2022-11-20T16:52:17.360Z,118.47
2022-11-20T16:57:19.881Z,248.80
2022-11-20T17:02:22.433Z,180.67
2022-11-20T17:07:24.777Z,166.83
2022-11-20T17:12:27.128Z,199.07
2022-11-20T17:17:29.579Z,296.60
2022-11-20T17:22:32.605Z,301.17
2022-11-20T17:27:35.168Z,255.07
2022-11-20T17:32:37.491Z,417.97
2022-11-20T17:37:39.855Z,556.17
2022-11-20T17:42:42.225Z,843.63
2022-11-20T17:47:46.543Z,796.13
2022-11-20T17:52:48.860Z,864.77
2022-11-20T17:57:56.557Z,734.93
2022-11-20T18:02:59.164Z,737.13
2022-11-20T18:08:04.363Z,546.87
2022-11-20T18:13:06.646Z,450.63
2022-11-20T18:18:11.614Z,414.53
2022-11-20T18:23:13.903Z,521.67
2022-11-20T18:28:16.290Z,451.37
2022-11-20T18:33:18.943Z,286.30
2022-11-20T18:38:21.401Z,297.70
2022-11-20T18:43:42.303Z,245.83
2022-11-20T18:48:44.775Z,205.00
2022-11-20T18:53:47.616Z,185.00
2022-11-20T18:58:50.186Z,205.73
2022-11-20T19:03:52.581Z,220.23
2022-11-20T19:08:54.926Z,250.27
2022-11-20T19:13:57.414Z,228.67
2022-11-20T19:19:03.396Z,260.90
2022-11-20T19:24:06.169Z,247.93
2022-11-20T19:29:12.577Z,224.67
2022-11-20T19:34:15.471Z,199.03
2022-11-20T19:39:17.972Z,192.10
2022-11-20T19:44:20.364Z,185.70
2022-11-20T19:49:23.072Z,131.83
2022-11-20T19:54:25.776Z,138.37
2022-11-20T19:59:28.218Z,133.10
2022-11-20T20:04:30.602Z,160.33
2022-11-20T20:09:34.308Z,134.40
2022-11-20T20:14:36.614Z,112.20
2022-11-20T20:19:38.903Z,84.23
2022-11-20T20:24:41.204Z,92.50
2022-11-20T20:29:43.507Z,100.00
2022-11-20T20:34:45.808Z,74.73
2022-11-20T20:39:48.133Z,73.67
2022-11-20T20:45:08.548Z,87.53
2022-11-20T20:50:12.178Z,121.00
2022-11-20T20:55:15.176Z,114.73
2022-11-20T21:00:17.574Z,85.23
2022-11-20T21:05:19.919Z,68.13
2022-11-20T21:10:23.872Z,69.23
2022-11-20T21:15:26.470Z,83.10
2022-11-20T21:20:47.362Z,63.13
2022-11-20T21:25:49.689Z,68.00
2022-11-20T21:30:52.012Z,116.70
2022-11-20T21:35:54.293Z,100.97
2022-11-20T21:40:59.973Z,83.60
2022-11-20T21:46:11.384Z,104.20
2022-11-20T21:51:16.013Z,185.73
2022-11-20T21:56:20.686Z,165.33
2022-11-20T22:01:29.112Z,98.57
2022-11-20T22:06:33.701Z,86.07
2022-11-20T22:11:36.062Z,78.37
2022-11-20T22:16:38.813Z,60.33
2022-11-20T22:21:41.957Z,58.13
2022-11-20T22:26:44.336Z,56.57
2022-11-20T22:31:47.825Z,58.57
2022-11-20T22:36:50.214Z,69.50
2022-11-20T22:41:52.525Z,114.60
2022-11-20T22:46:54.874Z,72.90
2022-11-20T22:51:57.177Z,79.50
2022-11-20T22:56:59.494Z,73.83
2022-11-20T23:02:01.792Z,77.07
2022-11-20T23:07:04.317Z,80.17
2022-11-20T23:12:06.980Z,91.63
2022-11-20T23:17:34.451Z,96.13
2022-11-20T23:22:36.872Z,88.63
2022-11-20T23:27:39.146Z,67.13
